Time;durP1;ratioP1;P1;durP2;ratioP2;P2;SDS_P1;SDS_P2;PMS_P1;PMS_P2;Temp;Humidity;BMP_temperature;BMP_pressure;BME280_temperature;BME280_humidity;BME280_pressure;Samples;Min_cycle;Max_cycle;Signal;HPM_P1;HPM_P2
2023/11/07 00:00:13;;;;;;;0.50;0.50;;;8.30;99.90;;;;;;5089000;28;20273;-72
2023/11/07 00:02:40;;;;;;;0.60;0.60;;;8.30;99.90;;;;;;5088790;28;20189;-73
2023/11/07 00:05:09;;;;;;;0.50;0.50;;;8.30;99.90;;;;;;5070822;28;20902;-72
2023/11/07 00:07:35;;;;;;;0.50;0.50;;;8.30;99.90;;;;;;5088803;28;20190;-72
2023/11/07 00:10:01;;;;;;;0.60;0.60;;;8.30;99.90;;;;;;5059916;28;20212;-72
2023/11/07 00:12:27;;;;;;;0.70;0.70;;;8.30;99.90;;;;;;5068451;28;20220;-72
2023/11/07 00:14:53;;;;;;;0.52;0.52;;;8.30;99.90;;;;;;5068645;28;20665;-73
2023/11/07 00:17:20;;;;;;;0.50;0.50;;;8.30;99.90;;;;;;5068561;28;20664;-71
2023/11/07 00:19:46;;;;;;;0.70;0.70;;;8.30;99.90;;;;;;5068626;28;20284;-73
2023/11/07 00:22:13;;;;;;;0.70;0.70;;;8.30;99.90;;;;;;5068680;28;20268;-72
2023/11/07 00:24:39;;;;;;;0.60;0.60;;;8.30;99.90;;;;;;5068522;28;20251;-73
2023/11/07 00:27:05;;;;;;;0.55;0.55;;;8.30;99.90;;;;;;5068577;28;20198;-73
2023/11/07 00:29:30;;;;;;;0.60;0.60;;;8.30;99.90;;;;;;5068275;28;20554;-73
2023/11/07 00:31:56;;;;;;;0.70;0.70;;;8.30;99.90;;;;;;5068423;28;20288;-73
2023/11/07 00:34:22;;;;;;;0.60;0.60;;;8.30;99.90;;;;;;5068632;28;20251;-71
2023/11/07 00:36:47;;;;;;;0.60;0.60;;;8.30;99.90;;;;;;5068502;28;20197;-71
2023/11/07 00:39:15;;;;;;;0.60;0.60;;;8.30;99.90;;;;;;5068338;28;20201;-70
2023/11/07 00:41:41;;;;;;;0.70;0.70;;;8.30;99.90;;;;;;5068362;28;20699;-71
2023/11/07 00:44:07;;;;;;;0.60;0.60;;;8.30;99.90;;;;;;5081114;28;20228;-70
2023/11/07 00:46:33;;;;;;;0.60;0.60;;;8.30;99.90;;;;;;5088621;28;20192;-70
2023/11/07 00:48:59;;;;;;;0.47;0.47;;;8.30;99.90;;;;;;5090163;28;20633;-69
2023/11/07 00:51:25;;;;;;;0.50;0.50;;;8.30;99.90;;;;;;5073533;28;20231;-71
2023/11/07 00:53:51;;;;;;;0.70;0.70;;;8.30;99.90;;;;;;5091932;28;20279;-70
2023/11/07 00:56:18;;;;;;;0.60;0.60;;;8.30;99.90;;;;;;5092145;28;20212;-69
2023/11/07 00:58:44;;;;;;;0.50;0.50;;;8.40;99.90;;;;;;5073604;28;20211;-70
2023/11/07 01:01:09;;;;;;;0.50;0.50;;;8.40;99.90;;;;;;5092443;28;20200;-70
2023/11/07 01:03:35;;;;;;;0.50;0.50;;;8.40;99.90;;;;;;5073848;28;20227;-69
2023/11/07 01:06:01;;;;;;;0.52;0.52;;;8.40;99.90;;;;;;5073479;28;20210;-68
2023/11/07 01:08:27;;;;;;;0.50;0.50;;;8.40;99.90;;;;;;5073524;28;20224;-69
2023/11/07 01:10:53;;;;;;;0.60;0.60;;;8.40;99.90;;;;;;5091839;28;20223;-69
2023/11/07 01:13:19;;;;;;;0.50;0.50;;;8.40;99.90;;;;;;5073291;28;20200;-68
2023/11/07 01:15:45;;;;;;;0.60;0.60;;;8.40;99.90;;;;;;5091385;28;20196;-67
2023/11/07 01:18:11;;;;;;;0.40;0.40;;;8.40;99.90;;;;;;5091629;28;20211;-69
2023/11/07 01:20:37;;;;;;;0.60;0.60;;;8.40;99.90;;;;;;5091329;28;20184;-68
2023/11/07 01:23:03;;;;;;;0.60;0.60;;;8.40;99.90;;;;;;5091722;28;20207;-69
2023/11/07 01:25:28;;;;;;;0.57;0.57;;;8.40;99.90;;;;;;5073135;28;20260;-68
2023/11/07 01:27:55;;;;;;;0.60;0.60;;;8.40;99.90;;;;;;5073004;28;20706;-69
2023/11/07 01:30:21;;;;;;;0.60;0.60;;;8.40;99.90;;;;;;5091483;28;20325;-69
2023/11/07 01:32:49;;;;;;;0.52;0.52;;;8.40;99.90;;;;;;5091446;28;20633;-69
2023/11/07 01:35:15;;;;;;;0.50;0.50;;;8.40;99.90;;;;;;5073031;28;20184;-68
2023/11/07 01:37:41;;;;;;;0.60;0.60;;;8.40;99.90;;;;;;5091192;28;20192;-69
2023/11/07 01:40:09;;;;;;;0.52;0.52;;;8.40;99.90;;;;;;5091184;28;20208;-69
2023/11/07 01:42:45;;;;;;;0.70;0.70;;;8.40;99.90;;;;;;5091053;28;20277;-70
2023/11/07 01:45:11;;;;;;;0.60;0.60;;;8.40;99.90;;;;;;5072956;28;20235;-70
2023/11/07 01:47:38;;;;;;;0.60;0.60;;;8.40;99.90;;;;;;5069284;28;20212;-70
2023/11/07 01:50:13;;;;;;;0.60;0.60;;;8.40;99.90;;;;;;5052736;28;20354;-71
2023/11/07 01:52:40;;;;;;;0.60;0.60;;;8.40;99.90;;;;;;5068899;28;20621;-69
2023/11/07 01:55:16;;;;;;;0.60;0.60;;;8.40;99.90;;;;;;5090983;28;20330;-70
2023/11/07 01:57:44;;;;;;;0.60;0.60;;;8.40;99.90;;;;;;5090705;28;20818;-69
2023/11/07 02:00:13;;;;;;;0.50;0.50;;;8.40;99.90;;;;;;5089913;28;20556;-70
2023/11/07 02:02:40;;;;;;;0.60;0.60;;;8.40;99.90;;;;;;5090144;28;20208;-69
2023/11/07 02:05:07;;;;;;;0.50;0.50;;;8.40;99.90;;;;;;5090362;28;20200;-70
2023/11/07 02:07:32;;;;;;;0.50;0.50;;;8.40;99.90;;;;;;5090865;28;20190;-69
2023/11/07 02:09:59;;;;;;;0.57;0.57;;;8.40;99.90;;;;;;5072464;28;20763;-69
2023/11/07 02:12:25;;;;;;;0.60;0.60;;;8.40;99.90;;;;;;5090644;28;20192;-69
2023/11/07 02:14:51;;;;;;;0.60;0.60;;;8.40;99.90;;;;;;5090714;28;20211;-70
2023/11/07 02:17:17;;;;;;;0.55;0.55;;;8.40;99.90;;;;;;5090315;28;20867;-69
2023/11/07 02:19:42;;;;;;;0.50;0.50;;;8.40;99.90;;;;;;5072233;28;20283;-70
2023/11/07 02:22:10;;;;;;;0.50;0.50;;;8.40;99.90;;;;;;5090458;28;20277;-69
2023/11/07 02:24:36;;;;;;;0.50;0.50;;;8.30;99.90;;;;;;5090806;28;20280;-70
2023/11/07 02:27:01;;;;;;;0.60;0.60;;;8.30;99.90;;;;;;5090152;28;20672;-70
2023/11/07 02:29:28;;;;;;;0.50;0.50;;;8.30;99.90;;;;;;5079256;28;20217;-71
2023/11/07 02:31:54;;;;;;;0.50;0.50;;;8.30;99.90;;;;;;5052278;28;20664;-69
2023/11/07 02:34:20;;;;;;;0.60;0.60;;;8.30;99.90;;;;;;5069656;28;20220;-69
2023/11/07 02:36:45;;;;;;;0.63;0.63;;;8.30;99.90;;;;;;5065371;28;20212;-69
2023/11/07 02:39:12;;;;;;;0.60;0.60;;;8.20;99.90;;;;;;5090181;28;20188;-69
2023/11/07 02:41:38;;;;;;;0.60;0.60;;;8.10;99.90;;;;;;5090185;28;20207;-69
2023/11/07 02:44:05;;;;;;;0.60;0.60;;;8.10;99.90;;;;;;5068332;28;20223;-70
2023/11/07 02:46:30;;;;;;;0.60;0.60;;;8.10;99.90;;;;;;5069756;28;20566;-70
2023/11/07 02:48:56;;;;;;;0.68;0.68;;;8.10;99.90;;;;;;5069793;28;20208;-69
2023/11/07 02:51:23;;;;;;;0.60;0.60;;;8.00;99.90;;;;;;5069375;28;20271;-69
2023/11/07 02:53:50;;;;;;;0.70;0.70;;;8.00;99.90;;;;;;5069760;28;20196;-69
2023/11/07 02:56:17;;;;;;;0.50;0.50;;;8.00;99.90;;;;;;5051499;28;20232;-69
2023/11/07 02:58:43;;;;;;;0.70;0.70;;;8.00;99.90;;;;;;5061281;28;20651;-70
2023/11/07 03:01:09;;;;;;;0.70;0.70;;;7.90;99.90;;;;;;5071779;28;20206;-70
2023/11/07 03:03:35;;;;;;;0.50;0.50;;;8.00;99.90;;;;;;5071279;28;20678;-69
2023/11/07 03:06:01;;;;;;;0.60;0.60;;;7.90;99.90;;;;;;5089673;28;20200;-69
2023/11/07 03:08:27;;;;;;;0.77;0.77;;;7.90;99.90;;;;;;5089529;28;20203;-70
2023/11/07 03:10:53;;;;;;;0.65;0.65;;;7.90;99.90;;;;;;5089796;28;20180;-69
2023/11/07 03:13:20;;;;;;;0.60;0.60;;;7.90;99.90;;;;;;5089471;28;20241;-70
2023/11/07 03:15:47;;;;;;;0.57;0.57;;;7.90;99.90;;;;;;5089859;28;20192;-71
2023/11/07 03:18:13;;;;;;;0.50;0.50;;;7.90;99.90;;;;;;5089715;28;20286;-70
2023/11/07 03:20:39;;;;;;;0.60;0.60;;;7.80;99.90;;;;;;5089246;28;20192;-70
2023/11/07 03:23:05;;;;;;;0.60;0.60;;;7.80;99.90;;;;;;5089718;28;20195;-70
2023/11/07 03:25:31;;;;;;;0.68;0.68;;;7.80;99.90;;;;;;5079850;28;20559;-71
2023/11/07 03:27:57;;;;;;;0.60;0.60;;;7.80;99.90;;;;;;5069235;28;20261;-70
2023/11/07 03:30:23;;;;;;;0.70;0.70;;;7.80;99.90;;;;;;5050931;28;20261;-69
2023/11/07 03:32:48;;;;;;;0.50;0.50;;;7.80;99.90;;;;;;5081028;28;20204;-71
2023/11/07 03:35:14;;;;;;;0.50;0.50;;;7.80;99.90;;;;;;5089341;28;20199;-70
2023/11/07 03:37:40;;;;;;;0.60;0.60;;;7.80;99.90;;;;;;5070940;28;20207;-70
2023/11/07 03:40:06;;;;;;;0.60;0.60;;;7.80;99.90;;;;;;5089608;28;20192;-70
2023/11/07 03:42:32;;;;;;;0.80;0.80;;;7.80;99.90;;;;;;5089031;28;20210;-70
2023/11/07 03:44:58;;;;;;;0.60;0.60;;;7.80;99.90;;;;;;5089475;28;20208;-69
2023/11/07 03:47:24;;;;;;;0.60;0.60;;;7.80;99.90;;;;;;5070665;28;20204;-69
2023/11/07 03:49:50;;;;;;;0.60;0.60;;;7.80;99.90;;;;;;5070925;28;20235;-70
2023/11/07 03:52:16;;;;;;;0.60;0.60;;;7.70;99.90;;;;;;5089327;28;20556;-71
2023/11/07 03:54:42;;;;;;;0.60;0.60;;;7.70;99.90;;;;;;5070552;28;20200;-70
2023/11/07 03:57:07;;;;;;;0.50;0.50;;;7.70;99.90;;;;;;5071014;28;20232;-69
2023/11/07 03:59:33;;;;;;;0.60;0.60;;;7.70;99.90;;;;;;5070849;28;20216;-70
2023/11/07 04:02:00;;;;;;;0.60;0.60;;;7.70;99.90;;;;;;5061951;28;20202;-69
2023/11/07 04:04:26;;;;;;;0.60;0.60;;;7.70;99.90;;;;;;5070693;28;20705;-71
2023/11/07 04:06:52;;;;;;;0.55;0.55;;;7.70;99.90;;;;;;5070567;28;20207;-70
2023/11/07 04:09:19;;;;;;;0.60;0.60;;;7.70;99.90;;;;;;5089057;28;20208;-69
2023/11/07 04:11:45;;;;;;;0.70;0.70;;;7.70;99.90;;;;;;5089058;28;20238;-69
2023/11/07 04:14:10;;;;;;;0.50;0.50;;;7.70;99.90;;;;;;5089288;28;20192;-73
2023/11/07 04:16:36;;;;;;;0.60;0.60;;;7.70;99.90;;;;;;5088837;28;20226;-73
2023/11/07 04:19:02;;;;;;;0.50;0.50;;;7.70;99.90;;;;;;5088950;28;20279;-73
2023/11/07 04:21:28;;;;;;;0.60;0.60;;;7.70;99.90;;;;;;5088472;28;20207;-73
2023/11/07 04:23:53;;;;;;;0.45;0.45;;;7.70;99.90;;;;;;5090425;28;20196;-72
2023/11/07 04:26:19;;;;;;;0.50;0.50;;;7.70;99.90;;;;;;5092677;28;20200;-73
2023/11/07 04:28:46;;;;;;;0.70;0.70;;;7.70;99.90;;;;;;5092469;28;20260;-72
2023/11/07 04:31:12;;;;;;;0.50;0.50;;;7.70;99.90;;;;;;5074606;28;20188;-74
2023/11/07 04:33:38;;;;;;;0.45;0.45;;;7.70;99.90;;;;;;5074122;28;20214;-73
2023/11/07 04:36:05;;;;;;;0.52;0.52;;;7.70;99.90;;;;;;5092549;28;20192;-73
2023/11/07 04:38:31;;;;;;;0.60;0.60;;;7.70;99.90;;;;;;5092470;28;20214;-74
2023/11/07 04:40:57;;;;;;;0.60;0.60;;;7.70;99.90;;;;;;5092154;28;20298;-72
2023/11/07 04:43:23;;;;;;;0.50;0.50;;;7.60;99.90;;;;;;5092764;28;20192;-73
2023/11/07 04:45:49;;;;;;;0.60;0.60;;;7.70;99.90;;;;;;5092461;28;20276;-73
2023/11/07 04:48:14;;;;;;;0.60;0.60;;;7.60;99.90;;;;;;5092389;28;20576;-72
2023/11/07 04:50:40;;;;;;;0.50;0.50;;;7.70;99.90;;;;;;5091864;28;20736;-73
2023/11/07 04:53:07;;;;;;;0.60;0.60;;;7.60;99.90;;;;;;5092243;28;20196;-73
2023/11/07 04:55:33;;;;;;;0.57;0.57;;;7.60;99.90;;;;;;5087407;28;20266;-73
2023/11/07 04:57:59;;;;;;;0.45;0.45;;;7.60;99.90;;;;;;5071735;28;20706;-73
2023/11/07 05:00:25;;;;;;;0.60;0.60;;;7.60;99.90;;;;;;5071944;28;20656;-73
2023/11/07 05:02:50;;;;;;;0.50;0.50;;;7.60;99.90;;;;;;5071781;28;20189;-69
2023/11/07 05:05:16;;;;;;;0.60;0.60;;;7.60;99.90;;;;;;5053779;28;20201;-70
2023/11/07 05:07:42;;;;;;;0.60;0.60;;;7.60;99.90;;;;;;5053754;28;20200;-68
2023/11/07 05:10:12;;;;;;;0.60;0.60;;;7.60;99.90;;;;;;5054064;28;20307;-69
2023/11/07 05:12:38;;;;;;;0.52;0.52;;;7.50;99.90;;;;;;5053514;28;20453;-70
2023/11/07 05:15:04;;;;;;;0.60;0.60;;;7.60;99.90;;;;;;5054010;28;20711;-68
2023/11/07 05:17:31;;;;;;;0.55;0.55;;;7.60;99.90;;;;;;5053018;28;20200;-69
2023/11/07 05:19:56;;;;;;;0.80;0.80;;;7.60;99.90;;;;;;5072005;28;20193;-68
2023/11/07 05:22:23;;;;;;;0.50;0.50;;;7.60;99.90;;;;;;5053835;28;20205;-73
2023/11/07 05:24:51;;;;;;;0.60;0.60;;;7.60;99.90;;;;;;5071573;28;20200;-72
2023/11/07 05:27:17;;;;;;;0.70;0.70;;;7.50;99.90;;;;;;5071354;28;20660;-73
2023/11/07 05:29:42;;;;;;;0.60;0.60;;;7.50;99.90;;;;;;5071239;28;20220;-73
2023/11/07 05:32:08;;;;;;;0.50;0.50;;;7.50;99.90;;;;;;5053107;28;20307;-73
2023/11/07 05:34:39;;;;;;;0.50;0.50;;;7.50;99.90;;;;;;5071034;28;20189;-75
2023/11/07 05:37:04;;;;;;;0.60;0.60;;;7.50;99.90;;;;;;5070979;28;20238;-74
2023/11/07 05:39:30;;;;;;;0.60;0.60;;;7.50;99.90;;;;;;5049401;28;20218;-73
2023/11/07 05:41:56;;;;;;;0.50;0.50;;;7.50;99.90;;;;;;5050937;28;20201;-74
2023/11/07 05:44:22;;;;;;;0.60;0.60;;;7.50;99.90;;;;;;5050920;28;20240;-73
2023/11/07 05:46:48;;;;;;;0.70;0.70;;;7.50;99.90;;;;;;5055327;28;20314;-73
2023/11/07 05:49:14;;;;;;;0.60;0.60;;;7.50;99.90;;;;;;5070856;28;20217;-74
2023/11/07 05:51:40;;;;;;;0.40;0.40;;;7.50;99.90;;;;;;5070824;28;20274;-74
2023/11/07 05:54:07;;;;;;;0.63;0.63;;;7.50;99.90;;;;;;5070749;28;20196;-74
2023/11/07 05:56:33;;;;;;;0.60;0.60;;;7.50;99.90;;;;;;5083845;28;20235;-73
2023/11/07 05:58:58;;;;;;;0.60;0.60;;;7.50;99.90;;;;;;5090993;28;20200;-74
2023/11/07 06:01:24;;;;;;;0.50;0.50;;;7.50;99.90;;;;;;5090696;28;20192;-72
2023/11/07 06:03:50;;;;;;;0.60;0.60;;;7.50;99.90;;;;;;5090763;28;20200;-73
2023/11/07 06:06:15;;;;;;;0.60;0.60;;;7.50;99.90;;;;;;5090262;28;20235;-73
2023/11/07 06:08:41;;;;;;;0.68;0.68;;;7.50;99.90;;;;;;5090382;28;20208;-73
2023/11/07 06:11:07;;;;;;;0.60;0.60;;;7.50;99.90;;;;;;5090720;28;20233;-74
2023/11/07 06:13:32;;;;;;;0.60;0.60;;;7.50;99.90;;;;;;5090105;28;20200;-73
2023/11/07 06:15:58;;;;;;;0.60;0.60;;;7.50;99.90;;;;;;5090507;28;20197;-74
2023/11/07 06:18:24;;;;;;;0.60;0.60;;;7.50;99.90;;;;;;5090248;28;20210;-74
2023/11/07 06:20:50;;;;;;;0.50;0.50;;;7.50;99.90;;;;;;5090459;28;20245;-73
2023/11/07 06:23:15;;;;;;;0.60;0.60;;;7.50;99.90;;;;;;5090279;28;20739;-74
2023/11/07 06:25:42;;;;;;;0.50;0.50;;;7.50;99.90;;;;;;5072132;28;20200;-73
2023/11/07 06:28:08;;;;;;;0.40;0.40;;;7.50;99.90;;;;;;5090138;28;20408;-73
2023/11/07 06:30:34;;;;;;;0.50;0.50;;;7.40;99.90;;;;;;5090098;28;20215;-73
2023/11/07 06:33:00;;;;;;;0.60;0.60;;;7.40;99.90;;;;;;5090114;28;20195;-68
2023/11/07 06:35:26;;;;;;;0.60;0.60;;;7.40;99.90;;;;;;5071661;28;20212;-69
2023/11/07 06:37:51;;;;;;;0.60;0.60;;;7.40;99.90;;;;;;5090018;28;20276;-68
2023/11/07 06:40:18;;;;;;;0.60;0.60;;;7.40;99.90;;;;;;5071769;28;20223;-69
2023/11/07 06:42:45;;;;;;;0.60;0.60;;;7.40;99.90;;;;;;5087679;28;20200;-69
2023/11/07 06:45:14;;;;;;;0.60;0.60;;;7.50;99.90;;;;;;5069767;28;20215;-71
2023/11/07 06:47:43;;;;;;;0.60;0.60;;;7.50;99.90;;;;;;5068948;28;20201;-69
2023/11/07 06:50:11;;;;;;;0.60;0.60;;;7.50;99.90;;;;;;5069489;28;20299;-70
2023/11/07 06:52:47;;;;;;;0.43;0.43;;;7.50;99.90;;;;;;5069414;28;20193;-69
2023/11/07 06:55:13;;;;;;;0.52;0.52;;;7.50;99.90;;;;;;5067529;28;20678;-70
2023/11/07 06:57:39;;;;;;;0.50;0.50;;;7.50;99.90;;;;;;5049271;28;21006;-69
2023/11/07 07:00:05;;;;;;;0.50;0.50;;;7.50;99.90;;;;;;5031533;28;20205;-70
2023/11/07 07:02:35;;;;;;;0.60;0.60;;;7.50;99.90;;;;;;5059521;28;20687;-70
2023/11/07 07:05:03;;;;;;;0.45;0.45;;;7.50;99.90;;;;;;5068978;28;20221;-68
2023/11/07 07:07:30;;;;;;;0.47;0.47;;;7.50;99.90;;;;;;5049340;28;20909;-68
2023/11/07 07:09:55;;;;;;;0.50;0.50;;;7.60;99.90;;;;;;5049346;28;20259;-68
2023/11/07 07:12:21;;;;;;;0.63;0.63;;;7.50;99.90;;;;;;5049116;28;20675;-68
2023/11/07 07:14:48;;;;;;;0.90;0.90;;;7.50;99.90;;;;;;5049418;28;20718;-71
2023/11/07 07:17:16;;;;;;;0.65;0.65;;;7.50;99.90;;;;;;5056315;28;20196;-69
2023/11/07 07:19:42;;;;;;;0.60;0.60;;;7.60;99.90;;;;;;5051076;28;20714;-70
2023/11/07 07:22:08;;;;;;;0.50;0.50;;;7.50;99.90;;;;;;5051133;28;21087;-69
2023/11/07 07:24:34;;;;;;;0.50;0.50;;;7.50;99.90;;;;;;5069445;28;20192;-72
2023/11/07 07:27:00;;;;;;;0.50;0.50;;;7.50;99.90;;;;;;5069041;28;20560;-72
2023/11/07 07:29:26;;;;;;;0.50;0.50;;;7.40;99.90;;;;;;5068969;28;20204;-72
2023/11/07 07:31:52;;;;;;;0.50;0.50;;;7.40;99.90;;;;;;5068936;28;20192;-72
2023/11/07 07:34:18;;;;;;;0.50;0.50;;;7.40;99.90;;;;;;5069162;28;20200;-72
2023/11/07 07:36:44;;;;;;;0.60;0.60;;;7.30;99.90;;;;;;5050706;28;20197;-72
2023/11/07 07:39:34;;;;;;;0.60;0.60;;;7.30;99.90;;;;;;5065818;28;20247;-72
2023/11/07 07:42:00;;;;;;;0.50;0.50;;;7.20;99.90;;;;;;5048723;28;20275;-72
2023/11/07 07:44:32;;;;;;;0.60;0.60;;;7.30;99.90;;;;;;5048988;28;20185;-74
2023/11/07 07:46:57;;;;;;;0.40;0.40;;;7.30;99.90;;;;;;5048843;28;20189;-73
2023/11/07 07:49:23;;;;;;;0.60;0.60;;;7.20;99.90;;;;;;5048565;28;20687;-73
2023/11/07 07:51:55;;;;;;;0.70;0.70;;;7.20;99.90;;;;;;5048694;28;20190;-73
2023/11/07 07:54:24;;;;;;;0.60;0.60;;;7.20;99.90;;;;;;5048893;28;20216;-72
2023/11/07 07:56:51;;;;;;;0.60;0.60;;;7.10;99.90;;;;;;5064021;28;20737;-75
2023/11/07 07:59:17;;;;;;;0.60;0.60;;;7.10;99.90;;;;;;5071058;28;20220;-74
2023/11/07 08:01:43;;;;;;;0.50;0.50;;;7.00;99.90;;;;;;5054343;28;20202;-73
2023/11/07 08:04:08;;;;;;;0.60;0.60;;;7.00;99.90;;;;;;5054559;28;20205;-74
2023/11/07 08:06:34;;;;;;;0.57;0.57;;;6.90;99.90;;;;;;5078041;28;20624;-74
2023/11/07 08:09:00;;;;;;;0.50;0.50;;;7.00;99.90;;;;;;5071213;28;20223;-75
2023/11/07 08:11:26;;;;;;;0.60;0.60;;;7.00;99.90;;;;;;5072543;28;20193;-74
2023/11/07 08:13:53;;;;;;;0.50;0.50;;;7.00;99.90;;;;;;5083270;28;20274;-74
2023/11/07 08:16:19;;;;;;;0.50;0.50;;;7.00;99.90;;;;;;5092938;28;20192;-76
2023/11/07 08:18:46;;;;;;;1.40;1.30;;;7.00;99.90;;;;;;5092732;28;20687;-72
2023/11/07 08:21:12;;;;;;;0.60;0.60;;;7.00;99.90;;;;;;5092706;28;20587;-74
2023/11/07 08:23:37;;;;;;;0.70;0.70;;;7.00;99.90;;;;;;5092371;28;20202;-72
2023/11/07 08:26:03;;;;;;;0.52;0.52;;;6.90;99.90;;;;;;5079907;28;20200;-73
2023/11/07 08:28:29;;;;;;;0.60;0.60;;;6.90;99.90;;;;;;5061258;28;20288;-74
2023/11/07 08:30:55;;;;;;;0.57;0.57;;;6.90;99.90;;;;;;5092568;28;20203;-74
2023/11/07 08:33:20;;;;;;;0.60;0.60;;;6.90;99.90;;;;;;5074022;28;20551;-74
2023/11/07 08:35:47;;;;;;;0.50;0.50;;;6.90;99.90;;;;;;5092377;28;20196;-75
2023/11/07 08:38:12;;;;;;;0.52;0.52;;;6.90;99.90;;;;;;5092435;28;20271;-75
2023/11/07 08:40:38;;;;;;;0.68;0.68;;;6.80;99.90;;;;;;5092285;28;20219;-74
2023/11/07 08:43:04;;;;;;;0.60;0.60;;;6.80;99.90;;;;;;5092695;28;20195;-75
2023/11/07 08:45:32;;;;;;;0.60;0.60;;;6.80;99.90;;;;;;5092358;28;20584;-73
2023/11/07 08:47:58;;;;;;;0.70;0.70;;;6.80;99.90;;;;;;5092325;28;20808;-74
2023/11/07 08:50:25;;;;;;;0.50;0.50;;;6.70;99.90;;;;;;5092240;28;20295;-74
2023/11/07 08:52:52;;;;;;;0.50;0.50;;;6.80;99.90;;;;;;5092252;28;20184;-72
2023/11/07 08:55:18;;;;;;;0.60;0.60;;;6.80;99.90;;;;;;5089299;28;20204;-72
2023/11/07 08:57:44;;;;;;;0.70;0.70;;;6.80;99.90;;;;;;5053744;28;20216;-72
2023/11/07 09:00:21;;;;;;;0.60;0.60;;;6.90;99.90;;;;;;5071945;28;20197;-72
2023/11/07 09:02:49;;;;;;;0.60;0.60;;;7.00;99.90;;;;;;5071381;28;20240;-72
2023/11/07 09:05:16;;;;;;;0.60;0.60;;;7.00;99.90;;;;;;5053233;28;20555;-72
2023/11/07 09:07:43;;;;;;;0.55;0.55;;;7.00;99.90;;;;;;5071517;28;20193;-72
2023/11/07 09:10:11;;;;;;;0.68;0.68;;;7.00;99.90;;;;;;5052647;28;20274;-71
2023/11/07 09:12:37;;;;;;;0.70;0.70;;;7.00;99.90;;;;;;5071335;28;20200;-72
2023/11/07 09:15:06;;;;;;;0.70;0.70;;;7.00;99.90;;;;;;5053515;28;20580;-71
2023/11/07 09:17:34;;;;;;;0.60;0.60;;;7.00;99.90;;;;;;5071174;28;20267;-72
2023/11/07 09:20:03;;;;;;;0.60;0.60;;;6.90;99.90;;;;;;5053415;28;20196;-72
2023/11/07 09:22:29;;;;;;;0.52;0.52;;;7.00;99.90;;;;;;5071190;28;20242;-72
2023/11/07 09:24:55;;;;;;;0.65;0.65;;;7.00;99.90;;;;;;5071623;28;20712;-72
2023/11/07 09:27:20;;;;;;;0.60;0.60;;;6.90;99.90;;;;;;5071167;28;20199;-72
2023/11/07 09:29:46;;;;;;;0.60;0.60;;;6.90;99.90;;;;;;5053322;28;20220;-72
2023/11/07 09:32:12;;;;;;;0.60;0.60;;;6.90;99.90;;;;;;5063494;28;20200;-72
2023/11/07 09:34:41;;;;;;;0.65;0.65;;;6.90;99.90;;;;;;5051233;28;20189;-72
2023/11/07 09:37:11;;;;;;;0.50;0.50;;;6.90;99.90;;;;;;5051048;28;20212;-72
2023/11/07 09:39:39;;;;;;;0.60;0.60;;;7.00;99.90;;;;;;5051164;28;20201;-72
2023/11/07 09:42:07;;;;;;;0.60;0.60;;;7.10;99.90;;;;;;5051209;28;20407;-72
2023/11/07 09:44:37;;;;;;;0.68;0.68;;;7.10;99.90;;;;;;5050759;28;20193;-69
2023/11/07 09:47:05;;;;;;;0.70;0.70;;;7.10;99.90;;;;;;5051025;28;20197;-70
2023/11/07 09:49:32;;;;;;;0.60;0.60;;;7.10;99.90;;;;;;5050967;28;20675;-69
2023/11/07 09:52:00;;;;;;;0.60;0.60;;;7.10;99.90;;;;;;5050850;28;20224;-70
2023/11/07 09:54:30;;;;;;;0.60;0.60;;;7.20;99.90;;;;;;5050821;28;20196;-68
2023/11/07 09:57:00;;;;;;;0.50;0.50;;;7.30;99.90;;;;;;5066664;28;20236;-70
2023/11/07 09:59:44;;;;;;;0.60;0.60;;;7.40;99.90;;;;;;5063000;28;20253;-69
2023/11/07 10:02:10;;;;;;;0.40;0.40;;;7.40;99.90;;;;;;5072959;28;20212;-70
2023/11/07 10:04:36;;;;;;;0.70;0.70;;;7.50;99.90;;;;;;5090853;28;20188;-70
2023/11/07 10:07:03;;;;;;;0.50;0.50;;;7.50;99.90;;;;;;5073099;28;20193;-69
2023/11/07 10:09:31;;;;;;;0.70;0.70;;;7.50;99.90;;;;;;5070219;28;20217;-71
2023/11/07 10:11:58;;;;;;;0.60;0.60;;;7.60;99.90;;;;;;5070829;28;20189;-69
2023/11/07 10:14:24;;;;;;;0.60;0.60;;;7.70;99.90;;;;;;5070478;28;20357;-69
2023/11/07 10:16:56;;;;;;;0.77;0.77;;;7.90;99.90;;;;;;5052423;28;20213;-69
2023/11/07 10:19:25;;;;;;;0.60;0.60;;;7.90;99.90;;;;;;5070399;28;20197;-69
2023/11/07 10:21:54;;;;;;;1.10;0.90;;;7.80;99.90;;;;;;5083496;28;20211;-72
2023/11/07 10:24:20;;;;;;;0.70;0.70;;;7.80;99.90;;;;;;5090232;28;20219;-69
2023/11/07 10:26:52;;;;;;;0.60;0.60;;;7.70;99.90;;;;;;5072297;28;20200;-68
2023/11/07 10:29:30;;;;;;;0.60;0.60;;;7.60;99.90;;;;;;5075368;28;20197;-68
2023/11/07 10:32:08;;;;;;;0.60;0.60;;;7.60;99.90;;;;;;5070120;28;20648;-69
2023/11/07 10:34:35;;;;;;;0.60;0.60;;;7.60;99.90;;;;;;5069828;28;20192;-71
2023/11/07 10:37:05;;;;;;;0.50;0.50;;;7.60;99.90;;;;;;5051991;28;20192;-70
2023/11/07 10:39:33;;;;;;;0.60;0.60;;;7.60;99.90;;;;;;5069805;28;20659;-69
2023/11/07 10:42:16;;;;;;;0.52;0.52;;;7.70;99.90;;;;;;5069993;28;20204;-69
2023/11/07 10:44:43;;;;;;;0.70;0.70;;;7.60;99.90;;;;;;5069402;28;20777;-69
2023/11/07 10:47:09;;;;;;;0.45;0.45;;;7.50;99.90;;;;;;5069732;28;20200;-69
2023/11/07 10:49:36;;;;;;;0.57;0.57;;;7.50;99.90;;;;;;5069532;28;20212;-69
2023/11/07 10:52:05;;;;;;;0.52;0.52;;;7.50;99.90;;;;;;5069673;28;20223;-72
2023/11/07 10:54:31;;;;;;;0.50;0.50;;;7.50;99.90;;;;;;5069735;28;20193;-69
2023/11/07 10:57:04;;;;;;;0.63;0.63;;;7.50;99.90;;;;;;5053173;28;20689;-70
2023/11/07 10:59:33;;;;;;;0.60;0.60;;;7.60;99.90;;;;;;5031531;28;20204;-69
2023/11/07 11:02:04;;;;;;;0.60;0.60;;;7.60;99.90;;;;;;5054545;28;20667;-69
2023/11/07 11:04:37;;;;;;;0.60;0.60;;;7.70;99.90;;;;;;5051306;28;20291;-70
2023/11/07 11:07:06;;;;;;;0.60;0.60;;;7.70;99.90;;;;;;5069086;28;20672;-69
2023/11/07 11:09:33;;;;;;;0.50;0.50;;;7.70;99.90;;;;;;5069413;28;20212;-70
2023/11/07 11:12:02;;;;;;;0.60;0.60;;;7.80;99.90;;;;;;5051565;28;20201;-70
2023/11/07 11:14:31;;;;;;;0.70;0.70;;;7.80;99.90;;;;;;5047910;28;20209;-72
2023/11/07 11:17:38;;;;;;;0.60;0.60;;;7.80;99.90;;;;;;5049382;28;20717;-72
2023/11/07 11:20:22;;;;;;;0.60;0.60;;;7.60;99.90;;;;;;4987448;28;20350;-72
2023/11/07 11:22:55;;;;;;;0.68;0.68;;;7.50;99.90;;;;;;5045407;28;20296;-72
2023/11/07 11:25:45;;;;;;;0.63;0.63;;;7.40;99.90;;;;;;5048921;28;20197;-72
2023/11/07 11:28:11;;;;;;;0.50;0.50;;;7.30;99.90;;;;;;5049226;28;20213;-72
2023/11/07 11:30:40;;;;;;;0.57;0.57;;;7.30;99.90;;;;;;5049028;28;20679;-72
2023/11/07 11:33:11;;;;;;;0.60;0.60;;;7.30;99.90;;;;;;5048988;28;20197;-72
2023/11/07 11:35:41;;;;;;;0.60;0.60;;;7.30;99.90;;;;;;5049005;28;20697;-72
2023/11/07 11:38:21;;;;;;;0.60;0.60;;;7.20;99.90;;;;;;5049100;28;20193;-72
2023/11/07 11:40:54;;;;;;;0.57;0.57;;;7.20;99.90;;;;;;5049170;28;20584;-72
2023/11/07 11:43:59;;;;;;;1.13;1.08;;;7.20;99.90;;;;;;5048939;28;20185;-72
2023/11/07 11:46:37;;;;;;;0.63;0.63;;;7.10;99.90;;;;;;5018483;28;20666;-72
2023/11/07 11:49:07;;;;;;;0.63;0.63;;;7.10;99.90;;;;;;5049095;28;20208;-73
2023/11/07 11:51:36;;;;;;;0.47;0.47;;;7.10;99.90;;;;;;5056171;28;20276;-73
2023/11/07 11:54:03;;;;;;;0.63;0.63;;;7.10;99.90;;;;;;5069018;28;20191;-72
2023/11/07 11:56:29;;;;;;;0.52;0.52;;;7.10;99.90;;;;;;5081261;28;20260;-73
2023/11/07 11:59:10;;;;;;;0.60;0.60;;;7.10;99.90;;;;;;5088974;28;20696;-72
2023/11/07 12:02:03;;;;;;;0.50;0.50;;;7.10;99.90;;;;;;5088944;28;20376;-72
2023/11/07 12:04:37;;;;;;;0.43;0.43;;;7.10;99.90;;;;;;5088907;28;20207;-70
2023/11/07 12:07:08;;;;;;;0.60;0.60;;;7.10;99.90;;;;;;5088762;28;20188;-69
2023/11/07 12:09:35;;;;;;;0.45;0.45;;;7.10;99.90;;;;;;5088780;28;20234;-71
2023/11/07 12:12:01;;;;;;;0.70;0.70;;;7.10;99.90;;;;;;5070989;28;20196;-70
2023/11/07 12:14:28;;;;;;;0.60;0.60;;;7.10;99.90;;;;;;5088846;28;20203;-69
2023/11/07 12:16:57;;;;;;;0.57;0.57;;;7.10;99.90;;;;;;5089322;28;20688;-69
2023/11/07 12:19:24;;;;;;;0.60;0.60;;;7.10;99.90;;;;;;5088979;28;20184;-68
2023/11/07 12:21:52;;;;;;;0.70;0.70;;;7.00;99.90;;;;;;5073463;28;20204;-71
2023/11/07 12:24:20;;;;;;;0.60;0.60;;;7.00;99.90;;;;;;5050667;28;20239;-72
2023/11/07 12:26:46;;;;;;;0.60;0.60;;;6.90;99.90;;;;;;5068552;28;20205;-72
2023/11/07 12:29:12;;;;;;;0.60;0.60;;;7.00;99.90;;;;;;5068472;28;20208;-73
2023/11/07 12:31:39;;;;;;;0.60;0.60;;;6.80;99.90;;;;;;5068412;28;21135;-72
2023/11/07 12:34:05;;;;;;;0.70;0.70;;;6.80;99.90;;;;;;5068702;28;20185;-72
2023/11/07 12:36:33;;;;;;;0.60;0.60;;;6.70;99.90;;;;;;5068298;28;20188;-72
2023/11/07 12:39:00;;;;;;;0.60;0.60;;;6.70;99.90;;;;;;5069066;28;20201;-72
2023/11/07 12:41:28;;;;;;;0.57;0.57;;;6.80;99.90;;;;;;5088457;28;20683;-72
2023/11/07 12:43:54;;;;;;;0.60;0.60;;;6.70;99.90;;;;;;5088478;28;20188;-72
2023/11/07 12:46:20;;;;;;;0.50;0.50;;;6.70;99.90;;;;;;5091980;28;20191;-72
2023/11/07 12:48:47;;;;;;;0.60;0.60;;;6.80;99.90;;;;;;5076722;28;20660;-72
2023/11/07 12:51:20;;;;;;;0.50;0.50;;;6.70;99.90;;;;;;5072083;28;20189;-72
2023/11/07 12:53:53;;;;;;;0.60;0.60;;;6.80;99.90;;;;;;5072105;28;20200;-72
2023/11/07 12:56:24;;;;;;;0.60;0.60;;;6.70;99.90;;;;;;5060907;28;20395;-72
2023/11/07 12:58:50;;;;;;;0.60;0.60;;;6.70;99.90;;;;;;5051780;28;20213;-72